Time;durP1;ratioP1;P1;durP2;ratioP2;P2;SDS_P1;SDS_P2;PMS_P1;PMS_P2;Temp;Humidity;BMP_temperature;BMP_pressure;BME280_temperature;BME280_humidity;BME280_pressure;Samples;Min_cycle;Max_cycle;Signal;HPM_P1;HPM_P2
2021/12/04 00:02:11;;;;;;;86.43;33.85;;;4.80;99.90;;;;;;5115255;28;20043;-75
2021/12/04 00:04:40;;;;;;;81.43;33.10;;;4.80;99.90;;;;;;5114093;28;20055;-74
2021/12/04 00:07:07;;;;;;;97.65;35.97;;;4.80;99.90;;;;;;5114770;28;20479;-74
2021/12/04 00:09:34;;;;;;;86.95;33.33;;;4.80;99.90;;;;;;5114805;28;20051;-74
2021/12/04 00:12:01;;;;;;;103.47;35.33;;;4.80;99.90;;;;;;5115201;27;20135;-74
2021/12/04 00:14:28;;;;;;;88.63;34.47;;;4.80;99.90;;;;;;5115920;28;20438;-74
2021/12/04 00:16:54;;;;;;;85.13;33.15;;;4.80;99.90;;;;;;5115957;28;20471;-74
2021/12/04 00:19:22;;;;;;;92.55;33.10;;;4.80;99.90;;;;;;5115087;28;20047;-75
2021/12/04 00:21:49;;;;;;;97.82;33.53;;;4.80;99.90;;;;;;5097360;28;20056;-74
2021/12/04 00:24:15;;;;;;;99.78;33.85;;;4.80;99.90;;;;;;5114715;28;20096;-74
2021/12/04 00:26:40;;;;;;;94.00;34.17;;;4.80;99.90;;;;;;5113501;28;20055;-74
2021/12/04 00:29:06;;;;;;;96.53;33.30;;;4.80;99.90;;;;;;5131683;27;20387;-74
2021/12/04 00:31:33;;;;;;;100.90;34.45;;;4.80;99.90;;;;;;5114129;27;20095;-75
2021/12/04 00:33:59;;;;;;;105.25;36.97;;;4.80;99.90;;;;;;5114389;28;20047;-75
2021/12/04 00:49:48;;;;;;;109.70;32.22;;;4.80;99.90;;;;;;5115346;28;20312;-74
2021/12/04 00:52:14;;;;;;;104.10;32.88;;;4.80;99.90;;;;;;5113783;28;20126;-74
2021/12/04 00:54:40;;;;;;;101.43;33.13;;;4.90;99.90;;;;;;5130344;27;20123;-74
2021/12/04 00:57:06;;;;;;;117.68;35.08;;;4.80;99.90;;;;;;5114096;28;20051;-74
2021/12/04 00:59:32;;;;;;;107.15;33.38;;;4.80;99.90;;;;;;5112843;28;20079;-75
2021/12/04 01:01:57;;;;;;;92.18;32.08;;;4.90;99.90;;;;;;5113728;28;20044;-74
2021/12/04 01:04:23;;;;;;;112.60;34.58;;;5.00;99.90;;;;;;5115353;28;20131;-74
2021/12/04 01:06:50;;;;;;;115.03;33.42;;;4.80;99.90;;;;;;5112883;28;20040;-74
2021/12/04 01:09:19;;;;;;;103.20;32.20;;;4.80;99.90;;;;;;5113508;28;20059;-75
2021/12/04 01:11:47;;;;;;;110.60;32.95;;;4.80;99.90;;;;;;5114995;28;20050;-74
2021/12/04 01:14:15;;;;;;;118.35;34.35;;;4.80;99.90;;;;;;5112699;28;20044;-75
2021/12/04 01:16:41;;;;;;;155.20;35.95;;;4.80;99.90;;;;;;5114642;28;20043;-75
2021/12/04 01:19:07;;;;;;;116.85;33.50;;;4.80;99.90;;;;;;5114284;28;20126;-74
2021/12/04 01:21:33;;;;;;;106.05;33.35;;;4.80;99.90;;;;;;5113662;28;20188;-75
2021/12/04 01:23:59;;;;;;;118.65;34.63;;;4.90;99.90;;;;;;5113465;28;20059;-74
2021/12/04 01:26:25;;;;;;;115.57;34.22;;;4.80;99.90;;;;;;5113458;28;20048;-74
2021/12/04 01:28:51;;;;;;;142.13;34.60;;;4.70;99.90;;;;;;5112493;28;20047;-75
2021/12/04 01:31:17;;;;;;;130.88;34.85;;;4.80;99.90;;;;;;5112760;28;20109;-74
2021/12/04 01:33:43;;;;;;;139.48;35.97;;;4.80;99.90;;;;;;5113177;28;20544;-75
2021/12/04 01:36:09;;;;;;;119.43;35.92;;;4.80;99.90;;;;;;5112578;28;20075;-74
2021/12/04 01:38:36;;;;;;;120.85;34.33;;;4.80;99.90;;;;;;5112740;28;20506;-74
2021/12/04 01:41:02;;;;;;;112.47;33.85;;;4.80;99.90;;;;;;5113519;28;20516;-75
2021/12/04 01:43:28;;;;;;;126.78;32.85;;;4.80;99.90;;;;;;5113404;28;20043;-75
2021/12/04 01:45:55;;;;;;;121.70;34.33;;;4.80;99.90;;;;;;5114097;28;20517;-75
2021/12/04 01:48:22;;;;;;;163.55;36.13;;;4.80;99.90;;;;;;5114251;28;20130;-75
2021/12/04 01:50:48;;;;;;;117.28;33.00;;;4.80;99.90;;;;;;5111965;28;20134;-74
2021/12/04 01:53:14;;;;;;;105.03;31.95;;;4.70;99.90;;;;;;5112935;28;20579;-75
2021/12/04 01:55:40;;;;;;;123.90;34.67;;;4.70;99.90;;;;;;5114229;28;20127;-75
2021/12/04 01:58:07;;;;;;;131.35;35.00;;;4.70;99.90;;;;;;5113686;28;20048;-75
2021/12/04 02:00:36;;;;;;;172.02;36.42;;;4.70;99.90;;;;;;5112360;28;20060;-75
2021/12/04 02:03:04;;;;;;;120.93;33.92;;;4.80;99.90;;;;;;5112053;28;20111;-75
2021/12/04 02:05:31;;;;;;;114.45;32.40;;;4.70;99.90;;;;;;5113987;28;20031;-75
2021/12/04 02:07:56;;;;;;;169.05;37.42;;;4.80;99.90;;;;;;5113935;28;20039;-75
2021/12/04 02:10:22;;;;;;;147.20;35.60;;;5.00;99.90;;;;;;5111560;28;20046;-75
2021/12/04 02:12:49;;;;;;;151.18;35.88;;;4.80;99.90;;;;;;5114018;28;20035;-75
2021/12/04 02:15:16;;;;;;;123.13;32.78;;;4.80;99.90;;;;;;5113645;28;20096;-75
2021/12/04 02:17:46;;;;;;;107.65;31.15;;;4.80;99.90;;;;;;5113001;28;20096;-75
2021/12/04 02:20:25;;;;;;;97.88;30.95;;;4.80;99.90;;;;;;5113549;28;20051;-75
2021/12/04 02:22:51;;;;;;;101.88;31.00;;;4.70;99.90;;;;;;5112320;28;20052;-75
2021/12/04 02:25:18;;;;;;;110.78;31.08;;;4.80;99.90;;;;;;5113111;28;20064;-75
2021/12/04 02:27:45;;;;;;;104.97;30.15;;;5.00;99.90;;;;;;5113716;28;20056;-75
2021/12/04 02:30:15;;;;;;;126.30;32.60;;;4.80;99.90;;;;;;5112987;28;20050;-75
2021/12/04 02:32:41;;;;;;;116.97;30.88;;;4.80;99.90;;;;;;5112901;28;20562;-75
2021/12/04 02:35:08;;;;;;;101.63;30.70;;;4.80;99.90;;;;;;5112575;28;20055;-75
2021/12/04 02:37:36;;;;;;;92.30;29.50;;;4.70;99.90;;;;;;5112860;28;20048;-75
2021/12/04 02:40:03;;;;;;;92.72;29.40;;;4.80;99.90;;;;;;5111375;28;20130;-75
2021/12/04 02:42:30;;;;;;;78.78;29.00;;;4.80;99.90;;;;;;5112388;28;20075;-75
2021/12/04 02:44:59;;;;;;;87.82;26.92;;;4.80;99.90;;;;;;5112395;28;20078;-75
2021/12/04 02:47:27;;;;;;;102.65;28.38;;;4.80;99.90;;;;;;5112124;28;20051;-75
2021/12/04 02:49:53;;;;;;;82.07;26.00;;;4.80;99.90;;;;;;5111863;28;20143;-75
2021/12/04 02:52:19;;;;;;;98.75;28.48;;;4.80;99.90;;;;;;5116854;28;20047;-75
2021/12/04 02:54:46;;;;;;;83.18;26.58;;;4.80;99.90;;;;;;5117167;28;20112;-75
2021/12/04 02:57:13;;;;;;;74.00;25.25;;;4.70;99.90;;;;;;5117513;28;20040;-75
2021/12/04 02:59:41;;;;;;;71.78;24.95;;;4.80;99.90;;;;;;5114639;28;20479;-75
2021/12/04 03:02:17;;;;;;;74.55;24.77;;;4.80;99.90;;;;;;5117365;28;20096;-75
2021/12/04 03:04:45;;;;;;;86.55;25.48;;;4.70;99.90;;;;;;5116531;28;20048;-75
2021/12/04 03:07:11;;;;;;;68.65;23.48;;;4.70;99.90;;;;;;5116452;28;20120;-75
2021/12/04 03:09:37;;;;;;;92.63;25.02;;;4.70;99.90;;;;;;5116845;28;20382;-75
2021/12/04 03:12:04;;;;;;;61.67;23.70;;;4.70;99.90;;;;;;5117285;27;20043;-75
2021/12/04 03:14:29;;;;;;;75.40;24.52;;;4.70;99.90;;;;;;5114785;28;20078;-75
2021/12/04 03:16:56;;;;;;;60.05;22.75;;;4.70;99.90;;;;;;5115873;28;20083;-75
2021/12/04 03:19:22;;;;;;;62.10;22.50;;;5.20;99.90;;;;;;5115548;28;20048;-75
2021/12/04 03:21:48;;;;;;;61.60;23.38;;;4.70;99.90;;;;;;5114804;28;20062;-75
2021/12/04 03:24:16;;;;;;;62.75;23.50;;;4.70;99.90;;;;;;5132912;27;20123;-75
2021/12/04 03:26:42;;;;;;;71.30;24.55;;;4.70;99.90;;;;;;5116996;28;20087;-75
2021/12/04 03:29:13;;;;;;;64.65;22.95;;;4.70;99.90;;;;;;5115108;28;20086;-75
2021/12/04 03:31:52;;;;;;;66.10;22.67;;;4.70;99.90;;;;;;5114936;28;20058;-75
2021/12/04 03:42:34;;;;;;;54.42;21.45;;;4.80;99.90;;;;;;5115792;28;20379;-75
2021/12/04 03:45:00;;;;;;;61.28;21.50;;;4.90;99.90;;;;;;5116310;27;20069;-75
2021/12/04 03:47:27;;;;;;;56.97;21.92;;;4.70;99.90;;;;;;5116479;28;20050;-75
2021/12/04 03:49:53;;;;;;;83.90;23.63;;;4.90;99.90;;;;;;5115916;28;20078;-75
2021/12/04 03:52:19;;;;;;;55.40;21.90;;;4.70;99.90;;;;;;5116594;28;20082;-75
2021/12/04 03:54:44;;;;;;;78.28;23.10;;;4.70;99.90;;;;;;5115182;28;20135;-75
2021/12/04 03:57:12;;;;;;;119.93;26.45;;;4.70;99.90;;;;;;5114225;28;20047;-75
2021/12/04 03:59:41;;;;;;;63.80;20.70;;;4.70;99.90;;;;;;5114253;28;20498;-75
2021/12/04 04:02:09;;;;;;;69.78;21.80;;;4.70;99.90;;;;;;5114424;28;20048;-75
2021/12/04 04:04:35;;;;;;;95.68;23.38;;;4.80;99.90;;;;;;5114512;28;20071;-75
2021/12/04 04:07:01;;;;;;;68.03;21.55;;;4.70;99.90;;;;;;5116024;28;20047;-75
2021/12/04 04:09:28;;;;;;;65.60;21.75;;;4.70;99.90;;;;;;5113665;28;20634;-75
2021/12/04 04:11:54;;;;;;;68.65;21.88;;;4.70;99.90;;;;;;5116149;28;20399;-75
2021/12/04 04:14:20;;;;;;;67.25;21.90;;;4.70;99.90;;;;;;5116072;28;20039;-75
2021/12/04 04:16:46;;;;;;;62.85;21.75;;;4.90;99.90;;;;;;5114915;28;20051;-75
2021/12/04 04:19:12;;;;;;;71.07;21.98;;;4.70;99.90;;;;;;5115696;28;20043;-75
2021/12/04 04:21:40;;;;;;;70.90;21.70;;;4.70;99.90;;;;;;5114422;28;20059;-75
2021/12/04 04:24:10;;;;;;;80.68;22.67;;;4.70;99.90;;;;;;5113686;28;20052;-75
2021/12/04 04:26:37;;;;;;;67.43;23.10;;;4.70;99.90;;;;;;5116033;28;20052;-75
2021/12/04 04:29:04;;;;;;;85.10;23.17;;;4.90;99.90;;;;;;5115532;28;20039;-75
2021/12/04 04:31:31;;;;;;;82.53;23.08;;;4.70;99.90;;;;;;5113270;28;20405;-75
2021/12/04 04:34:06;;;;;;;85.25;24.27;;;4.70;99.90;;;;;;5115675;28;20044;-75
2021/12/04 05:12:25;;;;;;;59.97;20.33;;;4.80;99.90;;;;;;5093233;28;20052;-75
2021/12/04 05:14:54;;;;;;;61.70;18.92;;;4.80;99.90;;;;;;5094603;28;20091;-75
2021/12/04 05:20:05;;;;;;;64.20;19.05;;;4.80;99.90;;;;;;5112798;28;20048;-75
2021/12/04 05:22:32;;;;;;;60.28;20.13;;;4.80;99.90;;;;;;5113328;28;20056;-75
2021/12/04 05:24:58;;;;;;;52.50;19.23;;;4.80;99.90;;;;;;5113353;28;20050;-75
2021/12/04 05:27:23;;;;;;;65.53;19.55;;;4.80;99.90;;;;;;5113035;28;20047;-75
2021/12/04 05:29:49;;;;;;;104.03;22.33;;;4.70;99.90;;;;;;5114230;28;20134;-75
2021/12/04 05:32:16;;;;;;;46.15;18.67;;;4.80;99.90;;;;;;5114409;28;20043;-75
2021/12/04 05:34:42;;;;;;;71.82;21.65;;;4.80;99.90;;;;;;5112373;28;20063;-75
2021/12/04 05:37:08;;;;;;;61.65;19.58;;;4.80;99.90;;;;;;5130216;27;20574;-75
2021/12/04 05:39:35;;;;;;;65.10;20.40;;;4.80;99.90;;;;;;5113953;28;20047;-75
2021/12/04 05:42:01;;;;;;;59.08;19.20;;;4.70;99.90;;;;;;5113619;28;20042;-75
2021/12/04 05:44:29;;;;;;;70.95;20.88;;;4.80;99.90;;;;;;5112765;28;20094;-75
2021/12/04 05:47:00;;;;;;;88.78;23.25;;;4.80;99.90;;;;;;5092481;28;20119;-75
2021/12/04 05:57:06;;;;;;;68.43;21.38;;;4.80;99.90;;;;;;5091638;28;20051;-75
2021/12/04 05:59:32;;;;;;;66.10;20.52;;;4.80;99.90;;;;;;5095611;28;20101;-75
2021/12/04 06:01:58;;;;;;;53.85;19.98;;;4.70;99.90;;;;;;5092963;28;20040;-75
2021/12/04 06:04:25;;;;;;;68.45;20.88;;;4.70;99.90;;;;;;5093811;28;20043;-75
2021/12/04 06:06:51;;;;;;;77.00;21.75;;;4.80;99.90;;;;;;5092400;28;20044;-75
2021/12/04 06:09:17;;;;;;;71.07;21.60;;;4.70;99.90;;;;;;5092835;28;20461;-75
2021/12/04 06:11:42;;;;;;;66.07;21.50;;;4.80;99.90;;;;;;5113535;28;20095;-75
2021/12/04 06:14:08;;;;;;;55.72;19.27;;;4.80;99.90;;;;;;5130060;27;20535;-75
2021/12/04 06:16:34;;;;;;;65.43;21.45;;;4.80;99.90;;;;;;5128565;27;20126;-75
2021/12/04 06:19:25;;;;;;;61.90;20.98;;;4.80;99.90;;;;;;5129689;28;20502;-75
2021/12/04 06:24:35;;;;;;;78.68;20.80;;;4.70;99.90;;;;;;5112920;28;20058;-75
2021/12/04 06:27:01;;;;;;;75.28;21.13;;;4.80;99.90;;;;;;5099800;28;20044;-75
2021/12/04 06:29:27;;;;;;;59.53;21.10;;;4.80;99.90;;;;;;5116712;28;20149;-75
2021/12/04 06:31:53;;;;;;;67.70;20.10;;;4.80;99.90;;;;;;5115552;28;20129;-75
2021/12/04 06:34:18;;;;;;;70.95;21.55;;;4.80;99.90;;;;;;5118155;28;20039;-75
2021/12/04 06:36:44;;;;;;;95.32;21.95;;;4.80;99.90;;;;;;5118018;28;20051;-75
2021/12/04 06:39:10;;;;;;;75.47;21.13;;;4.80;99.90;;;;;;5116928;28;20031;-75
2021/12/04 06:41:36;;;;;;;95.93;22.73;;;4.80;99.90;;;;;;5116576;28;20375;-75
2021/12/04 06:44:02;;;;;;;86.15;22.95;;;4.70;99.90;;;;;;5117741;28;20038;-75
2021/12/04 06:46:29;;;;;;;85.75;22.83;;;4.80;99.90;;;;;;5116924;28;20047;-75
2021/12/04 06:51:32;;;;;;;76.38;21.80;;;4.80;99.90;;;;;;5116498;28;20135;-75
2021/12/04 06:56:33;;;;;;;94.32;23.05;;;4.80;99.90;;;;;;5117429;28;20051;-75
2021/12/04 06:59:03;;;;;;;82.03;22.55;;;4.70;99.90;;;;;;5116726;28;20051;-75
2021/12/04 07:01:29;;;;;;;93.35;22.67;;;4.80;99.90;;;;;;5115830;28;20083;-75
2021/12/04 07:03:55;;;;;;;78.07;21.48;;;4.70;99.90;;;;;;5116162;28;20079;-75
2021/12/04 07:06:20;;;;;;;90.53;22.10;;;4.80;99.90;;;;;;5116668;28;20044;-76
2021/12/04 07:08:46;;;;;;;83.57;22.00;;;4.80;99.90;;;;;;5117103;28;20109;-76
2021/12/04 07:11:12;;;;;;;74.13;21.70;;;4.80;99.90;;;;;;5115828;28;20380;-76
2021/12/04 07:13:38;;;;;;;92.55;21.63;;;4.80;99.90;;;;;;5115242;28;20490;-75
2021/12/04 07:16:06;;;;;;;125.05;25.17;;;4.80;99.90;;;;;;5115484;28;20134;-75
2021/12/04 07:18:33;;;;;;;78.22;20.85;;;4.80;99.90;;;;;;5117137;28;20110;-75
2021/12/04 07:20:58;;;;;;;95.10;22.42;;;4.80;99.90;;;;;;5115267;28;20050;-75
2021/12/04 07:23:24;;;;;;;94.55;21.08;;;4.80;99.90;;;;;;5116862;28;20499;-76
2021/12/04 07:25:50;;;;;;;81.40;19.95;;;4.80;99.90;;;;;;5115396;28;20044;-76
2021/12/04 07:28:16;;;;;;;83.18;21.95;;;4.70;99.90;;;;;;5116240;28;20044;-76
2021/12/04 07:30:42;;;;;;;74.38;21.23;;;4.80;99.90;;;;;;5116615;28;20411;-75
2021/12/04 07:33:08;;;;;;;86.63;20.42;;;4.80;99.90;;;;;;5115518;28;20124;-76
2021/12/04 07:35:34;;;;;;;82.10;21.05;;;4.80;99.90;;;;;;5115410;28;20046;-76
2021/12/04 07:38:00;;;;;;;101.75;22.52;;;4.80;99.90;;;;;;5116652;28;20394;-75
2021/12/04 07:40:27;;;;;;;67.70;19.38;;;4.80;99.90;;;;;;5115991;28;20046;-76
2021/12/04 07:42:52;;;;;;;95.60;21.35;;;5.00;99.90;;;;;;5116378;28;20044;-75
2021/12/04 07:45:18;;;;;;;133.77;24.67;;;4.80;99.90;;;;;;5115184;28;20046;-76
2021/12/04 07:47:46;;;;;;;87.05;21.02;;;4.80;99.90;;;;;;5114578;28;20051;-76
2021/12/04 07:50:14;;;;;;;81.18;20.08;;;4.80;99.90;;;;;;5116373;27;20051;-76
2021/12/04 07:52:40;;;;;;;95.50;22.80;;;4.80;99.90;;;;;;5116414;28;20044;-77
2021/12/04 07:55:08;;;;;;;84.22;21.15;;;4.80;99.90;;;;;;5115627;28;20118;-76
2021/12/04 07:57:34;;;;;;;88.32;21.50;;;4.80;99.90;;;;;;5116289;28;20088;-76
2021/12/04 08:00:04;;;;;;;115.72;24.27;;;4.90;99.90;;;;;;5116675;28;20433;-77
2021/12/04 08:02:30;;;;;;;72.70;19.95;;;4.80;99.90;;;;;;5114303;28;20075;-76
2021/12/04 08:04:56;;;;;;;66.95;20.25;;;4.80;99.90;;;;;;5116430;28;20086;-77
2021/12/04 08:07:21;;;;;;;70.15;20.15;;;4.80;99.90;;;;;;5116079;28;20466;-76
2021/12/04 08:09:47;;;;;;;67.30;20.20;;;4.80;99.90;;;;;;5114070;28;20061;-77
2021/12/04 08:12:13;;;;;;;80.57;22.23;;;4.80;99.90;;;;;;5116191;28;20563;-77
2021/12/04 08:14:39;;;;;;;80.32;20.52;;;5.00;99.90;;;;;;5114783;28;20044;-77
2021/12/04 08:17:05;;;;;;;79.25;20.52;;;4.80;99.90;;;;;;5115098;28;20457;-76
2021/12/04 08:19:32;;;;;;;72.25;20.58;;;4.90;99.90;;;;;;5115805;28;20123;-76
2021/12/04 08:21:58;;;;;;;68.90;21.05;;;5.10;99.90;;;;;;5114289;28;20058;-77
2021/12/04 08:24:24;;;;;;;82.05;21.55;;;4.80;99.90;;;;;;5113918;28;20043;-77
2021/12/04 08:26:50;;;;;;;77.13;20.50;;;4.80;99.90;;;;;;5115774;28;20056;-76
2021/12/04 08:29:16;;;;;;;82.22;20.83;;;4.80;99.90;;;;;;5115985;28;20040;-75
2021/12/04 08:31:42;;;;;;;87.25;21.95;;;4.80;99.90;;;;;;5113006;28;20048;-76
2021/12/04 08:34:08;;;;;;;89.80;21.77;;;4.80;99.90;;;;;;5115832;28;20390;-76
2021/12/04 08:36:34;;;;;;;115.50;23.13;;;4.80;99.90;;;;;;5131531;27;20501;-76
2021/12/04 08:39:03;;;;;;;73.50;20.25;;;4.80;99.90;;;;;;5114826;28;20039;-76
2021/12/04 08:41:29;;;;;;;103.70;22.67;;;4.80;99.90;;;;;;5115427;28;20410;-76
2021/12/04 08:43:55;;;;;;;74.63;20.77;;;4.80;99.90;;;;;;5114883;28;20165;-76
2021/12/04 08:46:22;;;;;;;88.80;21.42;;;4.90;99.90;;;;;;5113920;28;20108;-76
2021/12/04 08:48:51;;;;;;;66.82;20.13;;;4.90;99.90;;;;;;5115262;28;20483;-76
2021/12/04 08:51:21;;;;;;;84.38;20.15;;;4.90;99.90;;;;;;5112994;28;20105;-76
2021/12/04 08:53:47;;;;;;;64.25;20.13;;;4.90;99.90;;;;;;5115387;28;20046;-76
2021/12/04 08:56:13;;;;;;;61.05;20.27;;;4.80;99.90;;;;;;5115490;28;20043;-76
2021/12/04 08:58:40;;;;;;;72.47;21.13;;;4.80;99.90;;;;;;5113036;28;20043;-76
2021/12/04 09:01:13;;;;;;;87.35;20.77;;;4.90;99.90;;;;;;5115110;28;20044;-76
2021/12/04 09:03:44;;;;;;;100.20;22.75;;;4.90;99.90;;;;;;5114118;28;20043;-76
2021/12/04 09:06:11;;;;;;;83.68;20.15;;;4.90;99.90;;;;;;5114413;28;20048;-76
2021/12/04 09:08:37;;;;;;;63.38;17.55;;;4.90;99.90;;;;;;5112081;28;20036;-76
2021/12/04 09:11:07;;;;;;;88.68;20.58;;;4.90;99.90;;;;;;5114694;28;20044;-76
2021/12/04 09:13:35;;;;;;;62.88;17.58;;;5.10;99.90;;;;;;5113089;28;20115;-75
2021/12/04 09:16:01;;;;;;;55.80;18.52;;;4.90;99.90;;;;;;5114735;28;20112;-76
2021/12/04 09:18:27;;;;;;;56.78;18.05;;;4.90;99.90;;;;;;5113854;28;20123;-75
2021/12/04 09:20:55;;;;;;;52.17;17.13;;;4.90;99.90;;;;;;5103814;27;20052;-76
2021/12/04 09:23:22;;;;;;;47.38;17.05;;;4.90;99.90;;;;;;5114617;27;20051;-76
2021/12/04 09:25:53;;;;;;;54.75;16.00;;;4.90;99.90;;;;;;5113539;28;20048;-76
2021/12/04 09:28:26;;;;;;;51.47;16.13;;;4.90;99.90;;;;;;5113046;28;20078;-76
2021/12/04 09:36:43;;;;;;;46.75;15.23;;;4.90;99.90;;;;;;5113414;28;20047;-76
2021/12/04 10:12:16;;;;;;;32.78;13.75;;;5.00;99.90;;;;;;5112589;28;20086;-76
2021/12/04 10:18:00;;;;;;;37.08;14.95;;;5.10;99.90;;;;;;5113279;28;20039;-76
2021/12/04 10:20:23;;;;;;;29.23;14.43;;;5.10;99.90;;;;;;5113243;28;20368;-75
2021/12/04 10:33:47;;;;;;;29.15;13.77;;;5.10;99.90;;;;;;5112544;28;20059;-77
2021/12/04 10:36:24;;;;;;;32.00;14.38;;;5.10;99.90;;;;;;5112478;28;20113;-77
2021/12/04 10:38:51;;;;;;;33.97;14.27;;;5.10;99.90;;;;;;5113267;28;20502;-77
2021/12/04 10:41:17;;;;;;;44.08;15.10;;;5.10;99.90;;;;;;5113636;28;20052;-77
2021/12/04 10:43:43;;;;;;;34.05;14.45;;;5.10;99.90;;;;;;5111574;28;20123;-77
2021/12/04 10:46:14;;;;;;;37.90;14.20;;;5.20;99.90;;;;;;5112193;28;20180;-77
2021/12/04 10:48:48;;;;;;;41.28;14.25;;;5.20;99.90;;;;;;5093360;28;20040;-77
2021/12/04 10:51:35;;;;;;;31.88;14.55;;;5.20;99.90;;;;;;5095897;28;20040;-77
2021/12/04 10:54:17;;;;;;;34.38;14.75;;;5.20;99.90;;;;;;5109195;28;20444;-77
2021/12/04 11:04:50;;;;;;;37.53;15.18;;;5.20;99.90;;;;;;5111087;28;20410;-77
2021/12/04 11:45:30;;;;;;;40.30;14.80;;;5.40;99.90;;;;;;5057445;28;20091;-77
2021/12/04 11:47:58;;;;;;;25.67;12.93;;;5.40;99.90;;;;;;5108646;28;20059;-77
2021/12/04 11:50:31;;;;;;;29.65;14.20;;;5.50;99.90;;;;;;5115199;28;20051;-77
2021/12/04 11:53:03;;;;;;;27.08;13.95;;;5.40;99.90;;;;;;5114895;28;20050;-77
2021/12/04 11:55:32;;;;;;;26.27;12.80;;;5.40;99.90;;;;;;5115904;28;20126;-77
2021/12/04 11:57:58;;;;;;;29.48;12.68;;;5.40;99.90;;;;;;5116081;28;20047;-77
2021/12/04 12:00:33;;;;;;;29.77;13.15;;;5.50;99.90;;;;;;5114998;28;20048;-77
2021/12/04 12:03:09;;;;;;;28.27;12.68;;;5.50;99.90;;;;;;5115695;28;20092;-77
2021/12/04 12:05:54;;;;;;;28.95;13.23;;;5.40;99.90;;;;;;5116322;27;20501;-77
2021/12/04 12:08:37;;;;;;;28.35;13.20;;;5.40;99.90;;;;;;5114881;28;20047;-77
2021/12/04 12:11:20;;;;;;;26.05;13.63;;;5.40;99.90;;;;;;5114870;28;20062;-76
2021/12/04 12:13:50;;;;;;;33.15;13.68;;;5.50;99.90;;;;;;5132254;27;20376;-77
2021/12/04 12:16:21;;;;;;;32.72;13.70;;;5.40;99.90;;;;;;5115003;28;20130;-77
2021/12/04 12:18:53;;;;;;;31.63;14.23;;;5.40;99.90;;;;;;5115099;28;20079;-77
2021/12/04 12:21:25;;;;;;;32.03;14.55;;;5.50;99.90;;;;;;5114171;28;20482;-77
2021/12/04 12:31:50;;;;;;;35.35;16.27;;;5.50;99.90;;;;;;5095048;28;20514;-77
2021/12/04 12:36:13;;;;;;;34.35;15.55;;;5.60;99.90;;;;;;5114511;28;20458;-76
2021/12/04 12:38:47;;;;;;;36.55;16.23;;;5.50;99.90;;;;;;5130042;27;20097;-77
2021/12/04 12:41:35;;;;;;;31.95;15.50;;;5.60;99.90;;;;;;5094022;28;20048;-77
2021/12/04 12:44:24;;;;;;;32.83;16.00;;;5.50;99.90;;;;;;5093059;28;20135;-77
2021/12/04 12:46:56;;;;;;;38.75;16.17;;;5.60;99.90;;;;;;5103698;28;20047;-77
2021/12/04 12:49:43;;;;;;;32.53;15.48;;;5.50;99.90;;;;;;5115479;28;20047;-77
2021/12/04 12:52:28;;;;;;;33.95;17.35;;;5.50;99.90;;;;;;5112720;28;20118;-77
2021/12/04 12:54:58;;;;;;;42.88;17.83;;;5.50;99.90;;;;;;5115316;28;20051;-77
2021/12/04 12:57:28;;;;;;;39.03;17.65;;;5.50;99.90;;;;;;5113959;28;20105;-77
2021/12/04 13:11:38;;;;;;;41.67;17.38;;;5.60;99.90;;;;;;5114279;28;20123;-77
2021/12/04 13:14:09;;;;;;;34.30;16.13;;;5.50;99.90;;;;;;5115190;28;19927;-77
2021/12/04 13:16:35;;;;;;;35.50;16.00;;;5.50;99.90;;;;;;5113689;28;20120;-77
2021/12/04 13:19:06;;;;;;;37.47;16.58;;;5.50;99.90;;;;;;5113826;28;20044;-77
2021/12/04 13:21:34;;;;;;;34.30;16.60;;;5.50;99.90;;;;;;5114413;28;20196;-77
2021/12/04 13:24:00;;;;;;;34.40;16.73;;;5.50;99.90;;;;;;5115011;28;20048;-77
2021/12/04 13:26:31;;;;;;;37.00;15.60;;;5.50;99.90;;;;;;5124883;27;20043;-77
2021/12/04 13:29:00;;;;;;;31.92;15.75;;;5.60;99.90;;;;;;5110396;28;20056;-77
2021/12/04 13:31:27;;;;;;;31.67;15.63;;;5.60;99.90;;;;;;5092852;28;20052;-77
2021/12/04 13:33:55;;;;;;;30.75;15.45;;;5.60;99.90;;;;;;5092677;28;20083;-77
2021/12/04 13:36:24;;;;;;;31.38;14.98;;;5.60;99.90;;;;;;5111620;28;20044;-77
2021/12/04 13:39:11;;;;;;;35.38;15.02;;;5.60;99.90;;;;;;5112866;28;20555;-77
2021/12/04 13:41:39;;;;;;;29.42;15.18;;;5.60;99.90;;;;;;5113311;28;20047;-77
2021/12/04 13:44:08;;;;;;;35.08;14.23;;;5.60;99.90;;;;;;5114526;28;20443;-77
2021/12/04 13:46:52;;;;;;;28.60;14.10;;;5.60;99.90;;;;;;5111928;28;20055;-77
2021/12/04 13:49:30;;;;;;;34.75;14.95;;;5.60;99.90;;;;;;5114378;28;20051;-77
2021/12/04 13:51:59;;;;;;;32.75;15.35;;;5.60;99.90;;;;;;5113836;28;20096;-77
2021/12/04 13:54:27;;;;;;;34.15;14.65;;;5.60;99.90;;;;;;5093055;28;20104;-77
2021/12/04 13:56:53;;;;;;;32.40;14.80;;;5.60;99.90;;;;;;5093696;28;20044;-77
2021/12/04 13:59:27;;;;;;;34.58;14.27;;;5.50;99.90;;;;;;5092450;28;20132;-77
2021/12/04 14:01:53;;;;;;;32.97;15.23;;;5.50;99.90;;;;;;5097284;28;20047;-77
2021/12/04 14:04:20;;;;;;;31.25;13.80;;;5.60;99.90;;;;;;5114176;28;20044;-77
2021/12/04 14:06:57;;;;;;;33.00;14.23;;;5.50;99.90;;;;;;5095925;28;20044;-77
2021/12/04 14:09:30;;;;;;;32.53;15.43;;;5.50;99.90;;;;;;5112132;28;20429;-76
2021/12/04 14:11:56;;;;;;;36.70;15.60;;;5.50;99.90;;;;;;5113640;28;20036;-76
2021/12/04 14:14:25;;;;;;;41.63;15.98;;;5.50;99.90;;;;;;5111877;28;20054;-76
2021/12/04 14:16:53;;;;;;;39.42;15.23;;;5.50;99.90;;;;;;5113858;28;20103;-76
2021/12/04 14:19:26;;;;;;;47.65;17.67;;;5.50;99.90;;;;;;5113981;28;20051;-76
2021/12/04 14:22:17;;;;;;;42.83;15.45;;;5.50;99.90;;;;;;5112822;28;20458;-76
2021/12/04 14:24:57;;;;;;;44.40;15.27;;;5.50;99.90;;;;;;5104116;28;20048;-76
2021/12/04 14:27:32;;;;;;;38.45;15.50;;;5.50;99.90;;;;;;5112830;28;20478;-76
2021/12/04 14:30:07;;;;;;;43.33;15.80;;;5.40;99.90;;;;;;5112860;28;20039;-76
2021/12/04 14:32:34;;;;;;;51.08;16.92;;;5.40;99.90;;;;;;5112007;28;20051;-77
2021/12/04 14:35:15;;;;;;;57.00;19.58;;;5.40;99.90;;;;;;5112445;28;20056;-77
2021/12/04 14:37:44;;;;;;;44.72;17.05;;;5.40;99.90;;;;;;5111971;28;20053;-76
2021/12/04 14:40:15;;;;;;;43.95;16.60;;;5.40;99.90;;;;;;5111824;28;20047;-77
2021/12/04 14:42:41;;;;;;;46.50;16.45;;;5.40;99.90;;;;;;5111690;28;20051;-76
2021/12/04 14:45:34;;;;;;;59.00;17.42;;;5.40;99.90;;;;;;5114193;28;20100;-76
2021/12/04 14:48:03;;;;;;;52.47;16.85;;;5.40;99.90;;;;;;5112905;28;20399;-76
2021/12/04 14:50:30;;;;;;;39.38;16.63;;;5.50;99.90;;;;;;5116265;28;20047;-76
2021/12/04 14:52:59;;;;;;;60.88;18.05;;;5.50;99.90;;;;;;5116941;28;20046;-76
2021/12/04 14:55:34;;;;;;;48.15;17.58;;;5.40;99.90;;;;;;5117793;28;20047;-76
2021/12/04 14:58:01;;;;;;;55.83;18.25;;;5.40;99.90;;;;;;5115821;28;20050;-76
2021/12/04 15:00:36;;;;;;;57.53;18.70;;;5.40;99.90;;;;;;5117365;28;20465;-76
2021/12/04 15:03:07;;;;;;;;;;;5.40;99.90;;;;;;5118095;28;20127;-76
2021/12/04 15:05:46;;;;;;;47.20;17.95;;;5.40;99.90;;;;;;5115515;28;19920;-76
2021/12/04 15:08:17;;;;;;;57.78;18.45;;;5.40;99.90;;;;;;5117276;28;20044;-76
2021/12/04 15:10:47;;;;;;;45.97;17.73;;;5.40;99.90;;;;;;5115167;28;20048;-76
2021/12/04 15:13:23;;;;;;;43.83;16.67;;;5.40;99.90;;;;;;5116731;28;20127;-76
2021/12/04 15:15:51;;;;;;;46.55;17.33;;;5.40;99.90;;;;;;5116955;28;20113;-76
2021/12/04 15:18:20;;;;;;;46.75;18.42;;;5.40;99.90;;;;;;5115177;28;20036;-76
2021/12/04 15:20:54;;;;;;;51.60;18.13;;;5.40;99.90;;;;;;5117321;28;20052;-76
2021/12/04 15:23:22;;;;;;;37.63;16.77;;;5.40;99.90;;;;;;5115500;28;20172;-77
2021/12/04 15:25:53;;;;;;;45.88;17.20;;;5.40;99.90;;;;;;5116162;28;20131;-76
2021/12/04 15:28:23;;;;;;;46.67;19.27;;;5.40;99.90;;;;;;5117109;28;20130;-77
2021/12/04 15:30:54;;;;;;;48.88;19.25;;;5.30;99.90;;;;;;5117020;28;20074;-77
2021/12/04 15:33:34;;;;;;;45.50;17.48;;;5.30;99.90;;;;;;5115840;28;20047;-77
2021/12/04 15:36:00;;;;;;;50.38;18.95;;;5.30;99.90;;;;;;5117098;28;20047;-77
2021/12/04 15:38:42;;;;;;;45.05;18.70;;;5.30;99.90;;;;;;5116722;28;20056;-77
2021/12/04 15:43:54;;;;;;;54.80;21.63;;;5.40;99.90;;;;;;5116516;28;20059;-77
2021/12/04 15:46:31;;;;;;;51.92;18.95;;;5.30;99.90;;;;;;5115923;28;20050;-77
2021/12/04 15:54:26;;;;;;;52.45;19.65;;;5.30;99.90;;;;;;5114545;28;20089;-77
2021/12/04 15:56:54;;;;;;;50.40;19.65;;;5.30;99.90;;;;;;5115978;28;20404;-77
2021/12/04 15:59:30;;;;;;;70.30;27.77;;;5.30;99.90;;;;;;5115364;28;20051;-77
2021/12/04 16:02:13;;;;;;;83.40;28.73;;;5.40;99.90;;;;;;5115679;27;20124;-77
2021/12/04 16:04:39;;;;;;;55.15;22.80;;;5.30;99.90;;;;;;5116429;28;20379;-77
2021/12/04 16:07:06;;;;;;;62.15;23.05;;;5.30;99.90;;;;;;5115351;28;20100;-78
2021/12/04 16:09:36;;;;;;;47.38;21.75;;;5.30;99.90;;;;;;5116347;28;20112;-78